createdAt,value
2023-12-07T15:48:37.742Z,492.00
2023-12-07T15:49:37.928Z,558.00
2023-12-07T15:50:37.690Z,398.00
2023-12-07T15:51:37.630Z,377.00
2023-12-07T15:52:37.706Z,371.00
2023-12-07T15:53:37.667Z,375.00
2023-12-07T15:54:40.313Z,373.00
2023-12-07T15:55:37.668Z,372.00
2023-12-07T15:56:37.677Z,372.00
2023-12-07T15:57:37.650Z,371.00
2023-12-07T15:58:37.648Z,367.00
2023-12-07T15:59:37.925Z,366.00
2023-12-07T16:00:37.693Z,363.00
2023-12-07T16:01:37.735Z,363.00
2023-12-07T16:02:37.671Z,365.00
2023-12-07T16:03:37.661Z,367.00
2023-12-07T16:04:38.012Z,370.00
2023-12-07T16:05:37.779Z,373.00
2023-12-07T16:06:37.784Z,376.00
2023-12-07T16:07:37.667Z,373.00
2023-12-07T16:08:37.822Z,374.00
2023-12-07T16:09:38.311Z,373.00
2023-12-07T16:10:37.695Z,374.00
2023-12-07T16:11:37.718Z,372.00
2023-12-07T16:12:37.704Z,375.00
2023-12-07T16:13:37.672Z,374.00
2023-12-07T16:14:37.780Z,376.00
2023-12-07T16:15:37.707Z,377.00
2023-12-07T16:16:37.705Z,374.00
2023-12-07T16:17:37.821Z,375.00
2023-12-07T16:18:37.806Z,372.00
2023-12-07T16:19:37.865Z,372.00
2023-12-07T16:20:37.766Z,369.00
2023-12-07T16:21:37.714Z,370.00
2023-12-07T16:22:37.698Z,366.00
2023-12-07T16:23:37.770Z,365.00
2023-12-07T16:24:37.757Z,361.00
2023-12-07T16:25:37.712Z,357.00
2023-12-07T16:26:37.763Z,354.00
2023-12-07T16:27:37.693Z,352.00
2023-12-07T16:28:37.725Z,350.00
2023-12-07T16:29:37.755Z,349.00
2023-12-07T16:30:46.072Z,346.00
2023-12-07T16:31:38.790Z,344.00
2023-12-07T16:32:37.831Z,340.00
2023-12-07T16:33:37.854Z,339.00
2023-12-07T16:34:37.894Z,336.00
2023-12-07T16:35:37.790Z,331.00
2023-12-07T16:36:38.051Z,328.00
2023-12-07T16:37:37.761Z,325.00
2023-12-07T16:38:37.792Z,322.00
2023-12-07T16:39:37.761Z,319.00
2023-12-07T16:40:37.786Z,313.00
2023-12-07T16:41:42.066Z,311.00
2023-12-07T16:42:38.780Z,308.00
2023-12-07T16:43:37.758Z,305.00
2023-12-07T16:44:37.769Z,306.00
2023-12-07T16:45:37.777Z,303.00
2023-12-07T16:46:37.784Z,300.00
2023-12-07T16:47:37.858Z,297.00
2023-12-07T16:48:37.919Z,295.00
2023-12-07T16:49:37.919Z,294.00
2023-12-07T16:50:37.798Z,292.00
2023-12-07T16:51:40.140Z,289.00
2023-12-07T16:52:44.753Z,292.00
2023-12-07T16:53:39.080Z,291.00
2023-12-07T16:54:37.984Z,290.00
2023-12-07T16:55:37.983Z,287.00
2023-12-07T16:56:38.256Z,284.00
2023-12-07T16:57:37.960Z,283.00
2023-12-07T16:58:37.992Z,281.00
2023-12-07T16:59:38.007Z,280.00
2023-12-07T17:00:38.060Z,281.00
2023-12-07T17:01:38.022Z,282.00
2023-12-07T17:02:38.286Z,284.00
2023-12-07T17:03:39.009Z,285.00
2023-12-07T17:04:38.277Z,285.00
2023-12-07T17:05:38.278Z,282.00
2023-12-07T17:06:46.428Z,283.00
2023-12-07T17:07:39.347Z,283.00
2023-12-07T17:08:38.449Z,282.00
2023-12-07T17:09:38.405Z,282.00
2023-12-07T17:10:38.348Z,282.00
2023-12-07T17:11:38.542Z,281.00
2023-12-07T17:12:38.349Z,280.00
2023-12-07T17:13:38.329Z,278.00
2023-12-07T17:14:38.355Z,277.00
2023-12-07T17:15:38.483Z,279.00
2023-12-07T17:16:38.305Z,278.00
2023-12-07T17:17:38.455Z,281.00
2023-12-07T17:18:38.608Z,285.00
2023-12-07T17:19:45.451Z,284.00
2023-12-07T17:20:39.466Z,283.00
2023-12-07T17:21:38.372Z,280.00
2023-12-07T17:22:38.367Z,279.00
2023-12-07T17:23:38.444Z,279.00
2023-12-07T17:24:38.383Z,278.00
2023-12-07T17:25:38.344Z,278.00
2023-12-07T17:26:42.362Z,276.00
2023-12-07T17:27:39.526Z,273.00
2023-12-07T17:28:38.363Z,272.00
2023-12-07T17:29:38.409Z,272.00
2023-12-07T17:30:38.364Z,272.00
2023-12-07T17:31:38.385Z,271.00
2023-12-07T17:32:38.399Z,270.00
2023-12-07T17:33:38.490Z,270.00
2023-12-07T17:34:38.507Z,272.00
2023-12-07T17:35:38.468Z,272.00
2023-12-07T17:36:38.393Z,274.00
2023-12-07T17:37:38.409Z,274.00
2023-12-07T17:38:38.411Z,274.00
2023-12-07T17:39:38.393Z,274.00
2023-12-07T17:40:38.383Z,275.00
2023-12-07T17:41:38.496Z,275.00
2023-12-07T17:42:38.407Z,274.00
2023-12-07T17:43:38.571Z,273.00
2023-12-07T17:44:38.480Z,274.00
2023-12-07T17:45:38.428Z,273.00
2023-12-07T17:46:38.384Z,274.00
2023-12-07T17:47:38.495Z,272.00
2023-12-07T17:48:38.506Z,274.00
2023-12-07T17:49:38.444Z,274.00
2023-12-07T17:50:38.485Z,272.00
2023-12-07T17:51:38.414Z,270.00
2023-12-07T17:52:38.737Z,270.00
2023-12-07T17:53:38.456Z,269.00
2023-12-07T17:54:38.454Z,271.00
2023-12-07T17:55:38.446Z,272.00
2023-12-07T17:56:38.444Z,273.00
2023-12-07T17:57:38.469Z,273.00
2023-12-07T17:58:38.481Z,272.00
2023-12-07T17:59:38.523Z,271.00
2023-12-07T18:00:38.534Z,270.00
2023-12-07T18:01:38.531Z,269.00
2023-12-07T18:02:38.580Z,271.00
2023-12-07T18:03:38.636Z,271.00
2023-12-07T18:04:38.661Z,269.00
2023-12-07T18:05:38.757Z,267.00
2023-12-07T18:06:38.818Z,264.00
2023-12-07T18:07:38.737Z,265.00
2023-12-07T18:08:38.837Z,263.00
2023-12-07T18:09:38.801Z,265.00
2023-12-07T18:10:38.863Z,264.00
2023-12-07T18:11:38.936Z,262.00
2023-12-07T18:12:38.907Z,262.00
2023-12-07T18:13:38.937Z,262.00
2023-12-07T18:14:38.997Z,261.00
2023-12-07T18:15:38.987Z,261.00
2023-12-07T18:16:39.040Z,262.00
2023-12-07T18:17:39.203Z,261.00
2023-12-07T18:18:39.242Z,259.00
2023-12-07T18:19:39.244Z,260.00
2023-12-07T18:20:39.285Z,260.00
2023-12-07T18:21:39.274Z,259.00
2023-12-07T18:22:39.350Z,257.00
2023-12-07T18:23:39.385Z,258.00
2023-12-07T18:24:39.403Z,259.00
2023-12-07T18:25:39.486Z,258.00
2023-12-07T18:26:39.542Z,257.00
2023-12-07T18:27:39.520Z,257.00
2023-12-07T18:28:39.696Z,257.00
2023-12-07T18:29:39.667Z,259.00
2023-12-07T18:30:39.694Z,257.00
2023-12-07T18:31:39.752Z,258.00
2023-12-07T18:32:39.837Z,259.00
2023-12-07T18:33:39.886Z,258.00
2023-12-07T18:34:39.940Z,258.00
2023-12-07T18:35:40.185Z,256.00
2023-12-07T18:36:40.029Z,255.00
2023-12-07T18:37:41.572Z,256.00
2023-12-07T18:38:40.143Z,256.00
2023-12-07T18:39:40.106Z,256.00
2023-12-07T18:40:40.176Z,255.00
2023-12-07T18:41:40.268Z,256.00
2023-12-07T18:42:40.302Z,254.00
2023-12-07T18:43:40.352Z,257.00
2023-12-07T18:44:40.474Z,258.00
2023-12-07T18:45:40.433Z,258.00
2023-12-07T18:46:40.525Z,258.00
2023-12-07T18:47:40.731Z,256.00
2023-12-07T18:48:40.764Z,257.00
2023-12-07T18:49:40.736Z,256.00
2023-12-07T18:50:40.720Z,255.00
2023-12-07T18:51:40.780Z,255.00
2023-12-07T18:52:40.820Z,253.00
2023-12-07T18:53:40.906Z,253.00
2023-12-07T18:54:41.000Z,253.00
2023-12-07T18:55:41.055Z,255.00
2023-12-07T18:56:41.148Z,254.00
2023-12-07T18:57:41.171Z,255.00
2023-12-07T18:58:41.231Z,254.00
2023-12-07T18:59:41.290Z,254.00
2023-12-07T19:00:41.352Z,254.00
2023-12-07T19:01:41.392Z,256.00
2023-12-07T19:02:41.485Z,255.00
2023-12-07T19:03:41.518Z,256.00
2023-12-07T19:04:41.703Z,257.00
2023-12-07T19:05:41.744Z,257.00
2023-12-07T19:06:41.730Z,255.00
2023-12-07T19:07:41.810Z,256.00
2023-12-07T19:08:41.867Z,258.00
2023-12-07T19:09:41.915Z,255.00
2023-12-07T19:10:41.988Z,254.00
2023-12-07T19:11:42.034Z,255.00
2023-12-07T19:12:42.140Z,253.00
2023-12-07T19:13:42.187Z,253.00
2023-12-07T19:14:42.355Z,254.00
2023-12-07T19:15:42.361Z,254.00
2023-12-07T19:16:42.435Z,254.00
2023-12-07T19:17:42.569Z,252.00
2023-12-07T19:18:42.621Z,250.00
2023-12-07T19:19:42.639Z,250.00
2023-12-07T19:20:42.739Z,249.00
2023-12-07T19:21:43.132Z,249.00
2023-12-07T19:22:42.828Z,250.00
2023-12-07T19:23:42.920Z,251.00
2023-12-07T19:24:42.898Z,254.00
2023-12-07T19:25:42.943Z,254.00
2023-12-07T19:26:43.098Z,254.00
2023-12-07T19:27:43.060Z,254.00
2023-12-07T19:28:43.120Z,253.00
2023-12-07T19:29:43.213Z,252.00
2023-12-07T19:30:43.227Z,251.00
2023-12-07T19:31:43.222Z,249.00
2023-12-07T19:32:43.404Z,248.00
2023-12-07T19:33:43.473Z,247.00
2023-12-07T19:34:43.455Z,247.00
2023-12-07T19:35:43.492Z,247.00
2023-12-07T19:36:43.563Z,246.00
2023-12-07T19:37:43.549Z,246.00
2023-12-07T19:38:43.564Z,247.00
2023-12-07T19:39:43.556Z,247.00
2023-12-07T19:40:43.609Z,247.00
2023-12-07T19:41:43.637Z,249.00
2023-12-07T19:42:43.635Z,252.00
2023-12-07T19:43:43.684Z,253.00
2023-12-07T19:44:43.706Z,252.00
2023-12-07T19:45:43.703Z,250.00
2023-12-07T19:46:43.814Z,250.00
2023-12-07T19:47:44.003Z,250.00
2023-12-07T19:48:46.506Z,246.00
2023-12-07T19:49:44.072Z,246.00
2023-12-07T19:50:44.262Z,244.00
2023-12-07T19:51:43.949Z,244.00
2023-12-07T19:52:43.962Z,243.00
2023-12-07T19:53:43.964Z,243.00
2023-12-07T19:54:43.898Z,243.00
2023-12-07T19:55:43.920Z,244.00
2023-12-07T19:56:43.932Z,244.00
2023-12-07T19:57:43.990Z,244.00
2023-12-07T19:58:43.916Z,242.00
2023-12-07T19:59:44.006Z,241.00
2023-12-07T20:00:44.073Z,239.00
2023-12-07T20:01:43.987Z,240.00
2023-12-07T20:02:43.963Z,239.00
2023-12-07T20:03:43.983Z,239.00
2023-12-07T20:04:44.019Z,242.00
2023-12-07T20:05:43.964Z,242.00
2023-12-07T20:06:44.049Z,243.00
2023-12-07T20:07:43.958Z,242.00
2023-12-07T20:08:44.010Z,242.00
2023-12-07T20:09:43.932Z,243.00
2023-12-07T20:10:44.008Z,245.00
2023-12-07T20:11:44.102Z,246.00
2023-12-07T20:12:43.964Z,244.00
2023-12-07T20:13:43.968Z,243.00
2023-12-07T20:14:43.991Z,243.00
2023-12-07T20:15:43.976Z,243.00
2023-12-07T20:16:43.956Z,243.00
2023-12-07T20:17:44.224Z,244.00
2023-12-07T20:18:44.052Z,243.00
2023-12-07T20:19:44.017Z,243.00
2023-12-07T20:20:43.988Z,243.00
2023-12-07T20:21:43.978Z,243.00
2023-12-07T20:22:43.961Z,241.00
2023-12-07T20:23:44.078Z,242.00
2023-12-07T20:24:43.980Z,244.00
2023-12-07T20:25:44.004Z,243.00
2023-12-07T20:26:44.041Z,243.00
2023-12-07T20:27:43.959Z,244.00
2023-12-07T20:28:44.002Z,243.00
2023-12-07T20:29:44.008Z,243.00
2023-12-07T20:30:43.984Z,246.00
2023-12-07T20:31:44.013Z,247.00
2023-12-07T20:32:44.114Z,246.00
2023-12-07T20:33:44.033Z,247.00
2023-12-07T20:34:44.025Z,249.00
2023-12-07T20:35:44.031Z,251.00
2023-12-07T20:36:43.979Z,251.00
2023-12-07T20:37:44.020Z,251.00
2023-12-07T20:38:44.060Z,249.00
2023-12-07T20:39:43.995Z,250.00
2023-12-07T20:40:44.027Z,249.00
2023-12-07T20:41:44.055Z,248.00
2023-12-07T20:42:43.992Z,246.00
2023-12-07T20:43:43.992Z,247.00
2023-12-07T20:44:44.004Z,247.00
2023-12-07T20:45:44.036Z,247.00
2023-12-07T20:46:44.024Z,247.00
2023-12-07T20:47:44.223Z,248.00
2023-12-07T20:48:44.087Z,248.00
2023-12-07T20:49:43.996Z,248.00
2023-12-07T20:50:44.056Z,247.00
2023-12-07T20:51:44.008Z,248.00
2023-12-07T20:52:44.026Z,248.00
2023-12-07T20:53:44.034Z,248.00
2023-12-07T20:54:44.871Z,249.00
2023-12-07T20:55:44.012Z,247.00
2023-12-07T20:56:44.451Z,247.00
2023-12-07T20:57:44.019Z,246.00
2023-12-07T20:58:44.001Z,245.00
2023-12-07T20:59:44.045Z,245.00
2023-12-07T21:00:44.060Z,244.00
2023-12-07T21:01:44.048Z,245.00
2023-12-07T21:02:44.050Z,245.00
2023-12-07T21:03:44.125Z,246.00
2023-12-07T21:04:44.034Z,245.00
2023-12-07T21:05:44.137Z,243.00
2023-12-07T21:06:44.046Z,241.00
2023-12-07T21:07:44.033Z,242.00
2023-12-07T21:08:44.136Z,243.00
2023-12-07T21:09:43.996Z,241.00
2023-12-07T21:10:44.039Z,239.00
2023-12-07T21:11:44.100Z,239.00
2023-12-07T21:12:44.029Z,239.00
2023-12-07T21:13:44.064Z,239.00
2023-12-07T21:14:44.113Z,239.00
2023-12-07T21:15:44.037Z,239.00
2023-12-07T21:16:44.040Z,241.00
2023-12-07T21:17:44.102Z,241.00
2023-12-07T21:18:44.150Z,241.00
2023-12-07T21:19:44.055Z,240.00
2023-12-07T21:20:44.151Z,239.00
2023-12-07T21:21:44.053Z,238.00
2023-12-07T21:22:44.046Z,239.00
2023-12-07T21:23:44.069Z,238.00
2023-12-07T21:24:44.110Z,240.00
2023-12-07T21:25:44.109Z,240.00
2023-12-07T21:26:44.162Z,238.00
2023-12-07T21:27:44.398Z,239.00
2023-12-07T21:28:44.200Z,237.00
2023-12-07T21:29:44.237Z,237.00
2023-12-07T21:30:44.331Z,237.00
2023-12-07T21:31:44.243Z,235.00
2023-12-07T21:32:44.396Z,234.00
2023-12-07T21:33:44.493Z,233.00
2023-12-07T21:34:44.345Z,233.00
2023-12-07T21:35:44.424Z,234.00
2023-12-07T21:36:44.419Z,235.00
2023-12-07T21:37:44.434Z,235.00
2023-12-07T21:38:44.460Z,237.00
2023-12-07T21:39:44.478Z,237.00
2023-12-07T21:40:44.486Z,238.00
2023-12-07T21:41:44.577Z,235.00
2023-12-07T21:42:44.589Z,235.00
2023-12-07T21:43:44.586Z,234.00
2023-12-07T21:44:44.676Z,234.00
2023-12-07T21:45:44.639Z,238.00
2023-12-07T21:46:44.828Z,238.00
2023-12-07T21:47:44.996Z,239.00
2023-12-07T21:48:44.942Z,237.00
2023-12-07T21:49:44.875Z,235.00
2023-12-07T21:50:44.939Z,234.00
2023-12-07T21:51:44.839Z,234.00
2023-12-07T21:52:44.909Z,233.00
2023-12-07T21:53:44.986Z,233.00
2023-12-07T21:54:44.952Z,235.00
2023-12-07T21:55:44.998Z,236.00
2023-12-07T21:56:45.082Z,235.00
2023-12-07T21:57:45.035Z,234.00
2023-12-07T21:58:45.077Z,233.00
2023-12-07T21:59:45.102Z,231.00
2023-12-07T22:00:45.179Z,232.00
2023-12-07T22:01:45.203Z,234.00
2023-12-07T22:02:45.213Z,233.00
2023-12-07T22:03:45.301Z,235.00
2023-12-07T22:04:45.326Z,238.00
2023-12-07T22:05:45.401Z,240.00
2023-12-07T22:06:45.413Z,238.00
2023-12-07T22:07:45.411Z,238.00
2023-12-07T22:08:45.442Z,238.00
2023-12-07T22:09:45.508Z,238.00
2023-12-07T22:10:45.535Z,237.00
2023-12-07T22:11:45.709Z,235.00
2023-12-07T22:12:45.651Z,233.00
2023-12-07T22:13:45.650Z,233.00
2023-12-07T22:14:45.708Z,234.00
2023-12-07T22:15:45.739Z,235.00
2023-12-07T22:16:45.796Z,239.00
2023-12-07T22:17:45.944Z,240.00
2023-12-07T22:18:46.071Z,239.00
2023-12-07T22:19:45.950Z,238.00
2023-12-07T22:20:45.962Z,238.00
2023-12-07T22:21:46.010Z,237.00
2023-12-07T22:22:45.994Z,236.00
2023-12-07T22:23:46.094Z,237.00
2023-12-07T22:24:46.108Z,237.00
2023-12-07T22:25:46.149Z,237.00
2023-12-07T22:26:46.233Z,238.00
2023-12-07T22:27:46.257Z,238.00
2023-12-07T22:28:46.306Z,239.00
2023-12-07T22:29:46.337Z,239.00
2023-12-07T22:30:46.402Z,240.00
2023-12-07T22:31:46.419Z,237.00
2023-12-07T22:32:46.861Z,235.00
2023-12-07T22:34:00.027Z,235.00
2023-12-07T22:34:47.675Z,233.00
2023-12-07T22:35:46.667Z,234.00
2023-12-07T22:36:46.552Z,235.00
2023-12-07T22:37:46.577Z,235.00
2023-12-07T22:38:46.580Z,235.00
2023-12-07T22:39:46.545Z,237.00
2023-12-07T22:40:46.580Z,240.00
2023-12-07T22:41:46.645Z,241.00
2023-12-07T22:42:46.568Z,241.00
2023-12-07T22:43:46.534Z,240.00
2023-12-07T22:44:46.589Z,238.00
2023-12-07T22:45:46.587Z,237.00
2023-12-07T22:46:46.632Z,238.00
2023-12-07T22:47:46.975Z,238.00
2023-12-07T22:48:46.829Z,240.00
2023-12-07T22:49:46.858Z,243.00
2023-12-07T22:50:46.828Z,243.00
2023-12-07T22:51:46.897Z,242.00
2023-12-07T22:52:46.944Z,241.00
2023-12-07T22:53:47.070Z,239.00
2023-12-07T22:54:47.052Z,238.00
2023-12-07T22:55:47.088Z,239.00
2023-12-07T22:56:47.192Z,242.00
2023-12-07T22:57:47.222Z,242.00
2023-12-07T22:58:47.333Z,239.00
2023-12-07T22:59:47.338Z,238.00
2023-12-07T23:00:47.503Z,238.00
2023-12-07T23:01:47.388Z,238.00
2023-12-07T23:02:47.487Z,239.00
2023-12-07T23:03:47.450Z,239.00
2023-12-07T23:04:47.577Z,238.00
2023-12-07T23:05:47.632Z,237.00
2023-12-07T23:06:47.668Z,236.00
2023-12-07T23:07:47.659Z,237.00
2023-12-07T23:08:47.734Z,236.00
2023-12-07T23:09:47.737Z,235.00
2023-12-07T23:10:47.805Z,234.00
2023-12-07T23:11:47.851Z,235.00
2023-12-07T23:12:47.914Z,236.00
2023-12-07T23:13:47.931Z,236.00
2023-12-07T23:14:48.023Z,235.00
2023-12-07T23:15:48.063Z,234.00
2023-12-07T23:16:48.145Z,234.00
2023-12-07T23:17:48.352Z,235.00
2023-12-07T23:18:48.366Z,236.00
2023-12-07T23:19:48.336Z,237.00
2023-12-07T23:20:48.397Z,237.00
2023-12-07T23:21:48.497Z,237.00
2023-12-07T23:22:48.558Z,239.00
2023-12-07T23:23:48.664Z,239.00
2023-12-07T23:24:48.635Z,238.00
2023-12-07T23:25:48.706Z,238.00
2023-12-07T23:26:48.789Z,237.00
2023-12-07T23:27:48.910Z,235.00
2023-12-07T23:28:48.958Z,234.00
2023-12-07T23:29:54.401Z,232.00
2023-12-07T23:30:49.999Z,232.00
2023-12-07T23:31:48.988Z,232.00
2023-12-07T23:32:49.242Z,231.00
2023-12-07T23:33:49.253Z,231.00
2023-12-07T23:34:49.068Z,229.00
2023-12-07T23:35:49.032Z,228.00
2023-12-07T23:36:48.967Z,227.00
2023-12-07T23:37:48.979Z,228.00
2023-12-07T23:38:49.128Z,229.00
2023-12-07T23:39:49.203Z,229.00
2023-12-07T23:40:49.161Z,229.00
2023-12-07T23:41:49.332Z,227.00
2023-12-07T23:42:49.326Z,226.00
2023-12-07T23:43:49.449Z,228.00
2023-12-07T23:44:49.589Z,227.00
2023-12-07T23:45:49.573Z,228.00
2023-12-07T23:46:49.644Z,227.00
2023-12-07T23:47:49.761Z,227.00
2023-12-07T23:48:49.891Z,230.00
2023-12-07T23:49:49.893Z,229.00
2023-12-07T23:50:49.873Z,227.00
2023-12-07T23:51:49.917Z,224.00
2023-12-07T23:52:49.946Z,224.00
2023-12-07T23:53:50.097Z,223.00
2023-12-07T23:54:50.051Z,224.00
2023-12-07T23:55:50.132Z,225.00
2023-12-07T23:56:50.188Z,226.00
2023-12-07T23:57:50.213Z,227.00
2023-12-07T23:58:50.290Z,227.00
2023-12-07T23:59:50.303Z,227.00
